Time;durP1;ratioP1;P1;durP2;ratioP2;P2;SDS_P1;SDS_P2;PMS_P1;PMS_P2;Temp;Humidity;BMP_temperature;BMP_pressure;BME280_temperature;BME280_humidity;BME280_pressure;Samples;Min_cycle;Max_cycle;Signal;HPM_P1;HPM_P2
2023/03/19 00:02:05;;;;;;;4.20;2.90;;;;;;;;;;5054752;28;20449;-80
2023/03/19 00:04:32;;;;;;;6.60;3.70;;;;;;;;;;5053977;28;20454;-80
2023/03/19 00:06:59;;;;;;;8.00;3.70;;;;;;;;;;5055090;28;20809;-79
2023/03/19 00:09:26;;;;;;;9.40;3.70;;;;;;;;;;5054508;28;20989;-80
2023/03/19 00:11:54;;;;;;;5.10;3.70;;;;;;;;;;5054754;28;20508;-80
2023/03/19 00:14:22;;;;;;;6.93;5.87;;;9.10;99.90;;;;;;5038376;28;20869;-78
2023/03/19 00:16:49;;;;;;;5.63;3.70;;;;;;;;;;5034128;28;20853;-80
2023/03/19 00:19:16;;;;;;;3.80;3.37;;;;;;;;;;5033442;28;20455;-80
2023/03/19 00:21:43;;;;;;;7.47;4.90;;;;;;;;;;5034695;28;20955;-80
2023/03/19 00:24:10;;;;;;;5.57;4.17;;;;;;;;;;5034646;28;20443;-78
2023/03/19 00:26:38;;;;;;;7.73;4.33;;;;;;;;;;5034720;28;20451;-80
2023/03/19 00:29:05;;;;;;;6.70;3.83;;;;;;;;;;5034725;28;20443;-80
2023/03/19 00:31:34;;;;;;;5.07;3.47;;;;;;;;;;5034774;28;20444;-78
2023/03/19 00:34:02;;;;;;;7.87;3.90;;;;;;;;;;5033513;28;20791;-80
2023/03/19 00:36:29;;;;;;;7.63;3.30;;;9.10;99.90;;;;;;5034545;28;20460;-80
2023/03/19 00:38:56;;;;;;;4.67;3.20;;;;;;;;;;5034651;28;20493;-79
2023/03/19 00:41:23;;;;;;;6.83;4.27;;;;;;;;;;5034560;28;20452;-80
2023/03/19 00:43:53;;;;;;;8.60;3.43;;;9.10;99.90;;;;;;5034535;28;20946;-80
2023/03/19 00:46:20;;;;;;;7.00;2.73;;;;;;;;;;5034497;28;20447;-79
2023/03/19 00:48:50;;;;;;;5.80;4.73;;;9.00;99.90;;;;;;5033218;28;20462;-80
2023/03/19 00:51:17;;;;;;;5.13;2.67;;;;;;;;;;5034105;28;20538;-80
2023/03/19 00:53:44;;;;;;;8.23;3.03;;;9.00;99.90;;;;;;5034218;28;20502;-80
2023/03/19 00:56:13;;;;;;;7.33;2.87;;;9.10;99.90;;;;;;5034214;28;20459;-81
2023/03/19 00:58:41;;;;;;;4.67;3.20;;;;;;;;;;5034327;28;20451;-80
2023/03/19 01:01:08;;;;;;;8.23;3.53;;;;;;;;;;5034269;28;20772;-80
2023/03/19 01:03:35;;;;;;;7.30;3.00;;;;;;;;;;5034217;28;20451;-80
2023/03/19 01:06:03;;;;;;;6.60;3.70;;;9.10;99.90;;;;;;5033308;28;20459;-79
2023/03/19 01:08:31;;;;;;;4.40;3.33;;;;;;;;;;5033967;28;20795;-80
2023/03/19 01:11:05;;;;;;;5.53;2.63;;;9.20;99.90;;;;;;5034117;28;20455;-80
2023/03/19 01:13:32;;;;;;;4.87;3.03;;;;;;;;;;5031410;28;20493;-80
2023/03/19 01:15:59;;;;;;;4.53;2.47;;;;;;;;;;5033798;28;20522;-79
2023/03/19 01:18:26;;;;;;;4.10;3.13;;;;;;;;;;5033856;28;20460;-79
2023/03/19 01:20:53;;;;;;;4.47;2.80;;;;;;;;;;5032553;28;20439;-80
2023/03/19 01:23:22;;;;;;;4.10;3.00;;;;;;;;;;5033635;28;20451;-80
2023/03/19 01:25:49;;;;;;;2.97;2.43;;;;;;;;;;5033782;28;20451;-80
2023/03/19 01:28:16;;;;;;;4.00;2.10;;;;;;;;;;5033836;28;20452;-82
2023/03/19 01:30:43;;;;;;;3.97;1.77;;;;;;;;;;5033657;28;20448;-83
2023/03/19 01:33:10;;;;;;;1.83;1.53;;;;;;;;;;5033293;28;20487;-82
2023/03/19 01:35:38;;;;;;;2.30;1.60;;;;;;;;;;5032055;28;20448;-81
2023/03/19 01:38:05;;;;;;;4.33;2.57;;;;;;;;;;5033701;28;20459;-80
2023/03/19 01:40:33;;;;;;;2.40;1.60;;;11.00;96.30;;;;;;5033640;28;20444;-81
2023/03/19 01:43:13;;;;;;;5.47;2.90;;;10.90;98.20;;;;;;5032940;28;20459;-81
2023/03/19 01:45:42;;;;;;;4.77;2.40;;;10.80;97.50;;;;;;5031471;28;20765;-81
2023/03/19 01:48:19;;;;;;;2.47;2.10;;;10.60;98.00;;;;;;5033239;28;20447;-81
2023/03/19 01:50:49;;;;;;;3.13;2.53;;;;;;;;;;5032229;28;20934;-81
2023/03/19 01:53:20;;;;;;;1.53;1.23;;;10.50;98.30;;;;;;5033352;28;20495;-82
2023/03/19 01:55:48;;;;;;;3.17;2.40;;;10.40;99.20;;;;;;5033355;28;20460;-83
2023/03/19 01:58:15;;;;;;;2.63;1.80;;;;;;;;;;5033443;28;20455;-81
2023/03/19 02:00:43;;;;;;;5.67;3.03;;;;;;;;;;5028479;28;20509;-84
2023/03/19 02:03:10;;;;;;;5.10;2.60;;;;;;;;;;5032999;28;20448;-81
2023/03/19 02:05:39;;;;;;;5.50;2.60;;;10.10;99.90;;;;;;5032128;28;20758;-81
2023/03/19 02:08:09;;;;;;;3.70;3.00;;;9.80;99.90;;;;;;5033206;28;20486;-81
2023/03/19 02:10:36;;;;;;;15.70;10.57;;;;;;;;;;5033209;28;20444;-81
2023/03/19 02:13:05;;;;;;;6.37;4.17;;;;;;;;;;5032888;28;20436;-82
2023/03/19 02:15:32;;;;;;;5.07;3.37;;;;;;;;;;5032877;28;20479;-82
2023/03/19 02:17:59;;;;;;;4.77;3.07;;;;;;;;;;5033033;28;20455;-80
2023/03/19 02:20:31;;;;;;;6.43;3.20;;;9.40;99.90;;;;;;5031995;28;20451;-81
2023/03/19 02:23:07;;;;;;;5.10;3.40;;;9.30;99.90;;;;;;5033002;28;20462;-82
2023/03/19 02:25:40;;;;;;;3.90;3.07;;;9.40;99.90;;;;;;5032802;28;20451;-82
2023/03/19 02:28:09;;;;;;;4.43;3.40;;;9.40;99.90;;;;;;5032888;28;20470;-83
2023/03/19 02:30:37;;;;;;;7.00;4.20;;;;;;;;;;5032974;28;20538;-83
2023/03/19 02:33:04;;;;;;;7.27;3.50;;;;;;;;;;5032938;28;20440;-82
2023/03/19 02:35:34;;;;;;;3.70;2.93;;;9.40;99.90;;;;;;5031599;28;20487;-80
2023/03/19 02:38:03;;;;;;;4.63;3.40;;;9.30;99.90;;;;;;5032980;28;20538;-83
2023/03/19 02:40:34;;;;;;;4.40;3.33;;;9.20;99.90;;;;;;5032899;28;20448;-82
2023/03/19 02:43:01;;;;;;;4.20;2.97;;;;;;;;;;5032798;28;20931;-83
2023/03/19 02:45:31;;;;;;;5.20;3.23;;;9.10;99.90;;;;;;5032702;28;20455;-82
2023/03/19 02:47:58;;;;;;;5.20;3.90;;;;;;;;;;5032834;28;20510;-83
2023/03/19 02:50:26;;;;;;;7.30;4.20;;;;;;;;;;5031577;28;20447;-81
2023/03/19 02:52:53;;;;;;;5.33;4.03;;;;;;;;;;5033867;28;20867;-82
2023/03/19 02:55:21;;;;;;;5.67;3.90;;;;;;;;;;5036512;28;20494;-82
2023/03/19 02:57:48;;;;;;;6.00;3.37;;;;;;;;;;5036563;28;20487;-82
2023/03/19 03:00:17;;;;;;;3.93;3.50;;;;;;;;;;5036524;28;20443;-82
2023/03/19 03:02:46;;;;;;;4.70;3.30;;;;;;;;;;5036488;28;20931;-82
2023/03/19 03:05:13;;;;;;;7.03;3.70;;;;;;;;;;5036243;28;20781;-82
2023/03/19 03:07:42;;;;;;;3.97;3.57;;;;;;;;;;5036026;28;20477;-82
2023/03/19 03:10:09;;;;;;;4.90;3.90;;;;;;;;;;5036269;28;20965;-82
2023/03/19 03:12:37;;;;;;;8.80;4.57;;;;;;;;;;5034982;28;20458;-81
2023/03/19 03:15:04;;;;;;;4.07;3.67;;;;;;;;;;5035701;28;21028;-82
2023/03/19 03:17:31;;;;;;;7.80;4.07;;;;;;;;;;5036317;28;20455;-82
2023/03/19 03:20:00;;;;;;;5.63;4.67;;;8.90;99.90;;;;;;5035089;28;20452;-82
2023/03/19 03:22:27;;;;;;;3.47;3.17;;;;;;;;;;5036477;28;20841;-82
2023/03/19 03:24:55;;;;;;;4.80;4.00;;;;;;;;;;5031501;28;20457;-82
2023/03/19 03:27:22;;;;;;;4.27;3.83;;;;;;;;;;5033649;28;20447;-82
2023/03/19 03:29:49;;;;;;;6.77;4.13;;;;;;;;;;5036244;28;20458;-82
2023/03/19 03:32:16;;;;;;;5.67;3.60;;;;;;;;;;5035759;28;20447;-80
2023/03/19 03:34:45;;;;;;;5.13;4.03;;;;;;;;;;5036472;28;20495;-82
2023/03/19 03:37:13;;;;;;;7.20;3.70;;;8.80;99.90;;;;;;5036616;28;20450;-81
2023/03/19 03:39:41;;;;;;;6.23;4.10;;;;;;;;;;5033229;28;20444;-82
2023/03/19 03:42:08;;;;;;;6.50;4.23;;;;;;;;;;5034255;28;20502;-82
2023/03/19 03:44:36;;;;;;;7.70;4.60;;;;;;;;;;5035697;28;20501;-82
2023/03/19 03:47:03;;;;;;;9.00;4.70;;;;;;;;;;5035507;28;21000;-82
2023/03/19 03:49:30;;;;;;;5.20;3.60;;;;;;;;;;5034510;28;20443;-82
2023/03/19 03:51:57;;;;;;;4.80;3.90;;;;;;;;;;5035670;28;20455;-82
2023/03/19 03:54:25;;;;;;;4.20;3.80;;;8.90;99.90;;;;;;5035286;28;20487;-82
2023/03/19 03:56:52;;;;;;;3.67;3.00;;;;;;;;;;5035423;28;20447;-81
2023/03/19 03:59:20;;;;;;;4.13;3.00;;;;;;;;;;5035436;28;20459;-85
2023/03/19 04:01:47;;;;;;;4.20;3.30;;;;;;;;;;5035594;28;20464;-82
2023/03/19 04:04:14;;;;;;;9.37;4.63;;;;;;;;;;5033532;28;20470;-83
2023/03/19 04:06:41;;;;;;;5.30;3.10;;;;;;;;;;5036121;28;20454;-82
2023/03/19 04:09:09;;;;;;;5.07;3.30;;;;;;;;;;5035252;28;20458;-81
2023/03/19 04:11:37;;;;;;;4.70;2.47;;;;;;;;;;5032953;28;20458;-82
2023/03/19 04:14:05;;;;;;;3.23;2.70;;;;;;;;;;5035009;28;20483;-81
2023/03/19 04:16:33;;;;;;;3.67;2.80;;;;;;;;;;5034614;28;20483;-81
2023/03/19 04:19:00;;;;;;;4.30;3.00;;;;;;;;;;5033878;28;20581;-82
2023/03/19 04:21:28;;;;;;;4.33;2.77;;;;;;;;;;5035109;28;20458;-83
2023/03/19 04:23:55;;;;;;;4.03;2.77;;;;;;;;;;5034990;28;20539;-81
2023/03/19 04:26:22;;;;;;;5.80;2.93;;;;;;;;;;5035042;28;20444;-81
2023/03/19 04:28:51;;;;;;;4.50;2.63;;;;;;;;;;5034694;28;20459;-82
2023/03/19 04:31:18;;;;;;;3.23;2.93;;;;;;;;;;5034832;28;20447;-82
2023/03/19 04:33:45;;;;;;;4.40;3.47;;;;;;;;;;5033579;28;20451;-82
2023/03/19 04:36:12;;;;;;;2.73;2.23;;;;;;;;;;5034744;28;20448;-82
2023/03/19 04:38:40;;;;;;;7.23;3.27;;;;;;;;;;5032871;28;20451;-83
2023/03/19 04:41:07;;;;;;;5.20;3.00;;;;;;;;;;5034556;28;20462;-82
2023/03/19 04:43:34;;;;;;;2.70;2.07;;;;;;;;;;5034736;28;20454;-84
2023/03/19 04:46:03;;;;;;;3.27;2.70;;;;;;;;;;5032865;28;20479;-82
2023/03/19 04:48:31;;;;;;;2.00;1.73;;;;;;;;;;5030234;28;20455;-83
2023/03/19 04:50:58;;;;;;;2.30;1.40;;;;;;;;;;5033287;28;20455;-82
2023/03/19 04:53:25;;;;;;;2.50;2.20;;;;;;;;;;5032308;28;20784;-81
2023/03/19 04:55:52;;;;;;;2.00;1.40;;;;;;;;;;5034145;28;21021;-83
2023/03/19 04:58:20;;;;;;;3.47;2.80;;;;;;;;;;5034063;28;20454;-81
2023/03/19 05:00:47;;;;;;;4.60;2.17;;;;;;;;;;5033971;28;20493;-82
2023/03/19 05:03:16;;;;;;;5.10;2.47;;;8.70;99.90;;;;;;5034170;28;20478;-82
2023/03/19 05:05:43;;;;;;;1.53;1.40;;;;;;;;;;5033065;28;20447;-85
2023/03/19 05:08:10;;;;;;;3.80;2.70;;;;;;;;;;5033867;28;20507;-81
2023/03/19 05:10:38;;;;;;;4.13;2.77;;;8.90;99.90;;;;;;5034084;28;20454;-79
2023/03/19 05:13:05;;;;;;;7.30;2.27;;;;;;;;;;5033729;28;20466;-82
2023/03/19 05:15:32;;;;;;;2.90;2.60;;;;;;;;;;5033430;28;20498;-81
2023/03/19 05:18:00;;;;;;;4.77;3.20;;;;;;;;;;5041254;28;20983;-80
2023/03/19 05:20:28;;;;;;;3.13;1.90;;;;;;;;;;5052656;28;20446;-83
2023/03/19 05:22:55;;;;;;;3.67;1.63;;;;;;;;;;5053725;28;20787;-80
2023/03/19 05:25:22;;;;;;;3.20;2.20;;;;;;;;;;5053748;28;20933;-80
2023/03/19 05:27:49;;;;;;;2.93;2.20;;;;;;;;;;5053733;28;20447;-82
2023/03/19 05:30:17;;;;;;;5.17;3.47;;;;;;;;;;5053667;28;20443;-81
2023/03/19 05:32:45;;;;;;;4.57;3.07;;;;;;;;;;5053651;28;20489;-80
2023/03/19 05:35:12;;;;;;;9.13;2.77;;;;;;;;;;5052322;28;20490;-84
2023/03/19 05:37:41;;;;;;;1.43;1.17;;;;;;;;;;5053474;28;20462;-83
2023/03/19 05:40:09;;;;;;;4.90;3.13;;;;;;;;;;5053474;28;20500;-82
2023/03/19 05:42:36;;;;;;;7.43;2.90;;;;;;;;;;5053533;28;20865;-81
2023/03/19 05:45:04;;;;;;;4.70;2.93;;;;;;;;;;5053426;28;20450;-81
2023/03/19 05:47:32;;;;;;;1.83;1.73;;;;;;;;;;5053380;28;20446;-79
2023/03/19 05:50:00;;;;;;;3.57;2.63;;;;;;;;;;5052178;28;20482;-82
2023/03/19 05:52:27;;;;;;;1.23;1.13;;;;;;;;;;5053046;28;20443;-84
2023/03/19 05:54:55;;;;;;;3.10;1.90;;;;;;;;;;5052860;28;20896;-82
2023/03/19 05:57:23;;;;;;;3.30;2.10;;;;;;;;;;5053236;28;20450;-81
2023/03/19 05:59:50;;;;;;;2.53;2.33;;;;;;;;;;5053345;28;20534;-83
2023/03/19 06:02:17;;;;;;;1.93;1.60;;;;;;;;;;5053473;28;20457;-80
2023/03/19 06:04:44;;;;;;;7.00;3.20;;;;;;;;;;5052115;28;20458;-80
2023/03/19 06:07:11;;;;;;;4.73;2.10;;;;;;;;;;5053339;28;20950;-81
2023/03/19 06:09:39;;;;;;;2.50;1.60;;;;;;;;;;5054307;28;20945;-81
2023/03/19 06:12:08;;;;;;;3.00;2.30;;;9.30;99.90;;;;;;5053053;28;20931;-81
2023/03/19 06:14:35;;;;;;;3.90;2.50;;;;;;;;;;5052793;28;20454;-81
2023/03/19 06:17:02;;;;;;;4.03;2.40;;;;;;;;;;5052902;28;20438;-81
2023/03/19 06:19:29;;;;;;;3.60;2.27;;;;;;;;;;5051731;28;20454;-80
2023/03/19 06:21:56;;;;;;;3.33;2.90;;;;;;;;;;5052901;28;20442;-81
2023/03/19 06:24:24;;;;;;;6.40;3.87;;;;;;;;;;5052786;28;20447;-82
2023/03/19 06:26:51;;;;;;;3.33;2.40;;;;;;;;;;5052730;28;20454;-79
2023/03/19 06:29:19;;;;;;;5.77;3.60;;;;;;;;;;5052669;28;20455;-80
2023/03/19 06:31:46;;;;;;;5.50;2.80;;;;;;;;;;5052792;28;20446;-82
2023/03/19 06:34:14;;;;;;;2.80;2.30;;;;;;;;;;5051656;28;20462;-81
2023/03/19 06:36:41;;;;;;;2.60;1.80;;;;;;;;;;5052644;28;20497;-81
2023/03/19 06:39:08;;;;;;;3.97;3.10;;;;;;;;;;5052781;28;20447;-82
2023/03/19 06:41:35;;;;;;;4.73;2.90;;;;;;;;;;5052716;28;20469;-81
2023/03/19 06:44:03;;;;;;;4.07;2.43;;;;;;;;;;5052677;28;20950;-81
2023/03/19 06:46:31;;;;;;;6.17;2.97;;;;;;;;;;5052532;28;20434;-81
2023/03/19 06:48:58;;;;;;;8.60;4.33;;;;;;;;;;5051468;28;20481;-82
2023/03/19 06:51:26;;;;;;;8.53;7.40;;;;;;;;;;5052552;28;20972;-81
2023/03/19 06:53:53;;;;;;;6.73;3.87;;;;;;;;;;5052617;28;20455;-81
2023/03/19 06:56:20;;;;;;;11.73;10.43;;;;;;;;;;5052515;28;20494;-76
2023/03/19 06:58:48;;;;;;;5.00;4.43;;;;;;;;;;5052582;28;20447;-77
2023/03/19 07:01:15;;;;;;;8.17;7.33;;;;;;;;;;5052529;28;20470;-80
2023/03/19 07:03:43;;;;;;;7.10;3.90;;;;;;;;;;5052013;28;20504;-77
2023/03/19 07:06:10;;;;;;;1.73;1.60;;;;;;;;;;5052702;28;20443;-81
2023/03/19 07:08:37;;;;;;;4.40;3.10;;;;;;;;;;5052753;28;20462;-78
2023/03/19 07:11:06;;;;;;;5.43;4.50;;;9.40;99.90;;;;;;5052523;28;20454;-81
2023/03/19 07:13:33;;;;;;;5.07;3.70;;;;;;;;;;5052462;28;20446;-81
2023/03/19 07:16:00;;;;;;;3.80;2.73;;;;;;;;;;5052468;28;20502;-81
2023/03/19 07:18:27;;;;;;;2.20;1.90;;;;;;;;;;5052490;28;20525;-81
2023/03/19 07:20:56;;;;;;;7.83;3.97;;;;;;;;;;5051216;28;20442;-81
2023/03/19 07:23:23;;;;;;;3.17;1.40;;;;;;;;;;5052321;28;20442;-82
2023/03/19 07:25:50;;;;;;;3.03;2.37;;;;;;;;;;5052365;28;20450;-81
2023/03/19 07:28:17;;;;;;;5.43;4.90;;;;;;;;;;5052164;28;20450;-81
2023/03/19 07:30:44;;;;;;;4.73;4.23;;;;;;;;;;5052256;28;20807;-82
2023/03/19 07:33:11;;;;;;;3.73;3.13;;;;;;;;;;5052185;28;20443;-79
2023/03/19 07:35:38;;;;;;;4.37;3.30;;;;;;;;;;5050960;28;20505;-80
2023/03/19 07:38:07;;;;;;;4.23;3.70;;;;;;;;;;5052237;28;20447;-80
2023/03/19 07:40:34;;;;;;;4.70;4.07;;;;;;;;;;5054183;28;20438;-78
2023/03/19 07:43:01;;;;;;;3.77;3.17;;;;;;;;;;5055754;28;20453;-82
2023/03/19 07:45:28;;;;;;;5.53;5.00;;;;;;;;;;5055661;28;20454;-82
2023/03/19 07:47:55;;;;;;;4.17;3.80;;;;;;;;;;5055703;28;20807;-81
2023/03/19 07:50:22;;;;;;;4.60;4.30;;;;;;;;;;5054433;28;20438;-82
2023/03/19 07:52:50;;;;;;;4.63;3.90;;;;;;;;;;5055482;28;20454;-80
2023/03/19 07:55:20;;;;;;;5.73;5.00;;;;;;;;;;5055317;28;20481;-80
2023/03/19 07:57:47;;;;;;;5.47;2.03;;;;;;;;;;5055428;28;20451;-81
2023/03/19 08:00:14;;;;;;;4.17;2.50;;;;;;;;;;5055263;28;20455;-81
2023/03/19 08:02:42;;;;;;;4.07;2.40;;;;;;;;;;5055248;28;20969;-81
2023/03/19 08:05:10;;;;;;;1.77;1.60;;;;;;;;;;5054146;28;20450;-82
2023/03/19 08:07:37;;;;;;;5.27;2.90;;;;;;;;;;5055112;28;20934;-80
2023/03/19 08:10:06;;;;;;;3.83;2.80;;;10.40;99.90;;;;;;5055125;28;20561;-81
2023/03/19 08:12:39;;;;;;;5.30;3.30;;;;;;;;;;5055045;28;20442;-80
2023/03/19 08:15:07;;;;;;;3.87;3.57;;;;;;;;;;5054894;28;20478;-81
2023/03/19 08:17:37;;;;;;;4.20;3.30;;;;;;;;;;5055034;28;20450;-82
2023/03/19 08:20:04;;;;;;;9.73;7.53;;;;;;;;;;5053777;28;20533;-79
2023/03/19 08:22:31;;;;;;;5.20;4.80;;;;;;;;;;5054953;28;20801;-79
2023/03/19 08:24:58;;;;;;;12.33;9.40;;;;;;;;;;5054844;28;20458;-80
2023/03/19 08:27:25;;;;;;;38.57;34.40;;;;;;;;;;5054845;28;20458;-76
2023/03/19 08:29:53;;;;;;;52.60;40.77;;;;;;;;;;5054614;28;20443;-77
2023/03/19 08:32:21;;;;;;;15.90;11.60;;;;;;;;;;5054717;28;20451;-82
2023/03/19 08:34:48;;;;;;;15.07;13.80;;;;;;;;;;5053512;28;20447;-78
2023/03/19 08:37:15;;;;;;;37.80;33.70;;;;;;;;;;5054646;28;20494;-79
2023/03/19 08:39:42;;;;;;;90.30;51.13;;;;;;;;;;5054666;28;20446;-80
2023/03/19 08:42:09;;;;;;;121.77;60.07;;;;;;;;;;5054576;28;20459;-82
2023/03/19 08:44:36;;;;;;;86.40;53.20;;;;;;;;;;5054468;28;20450;-80
2023/03/19 08:47:05;;;;;;;99.73;55.33;;;;;;;;;;5054402;28;20845;-80
2023/03/19 08:49:32;;;;;;;146.73;67.90;;;;;;;;;;5053115;28;20869;-77
2023/03/19 08:51:59;;;;;;;110.53;57.70;;;;;;;;;;5054329;28;20784;-82
2023/03/19 08:54:26;;;;;;;70.33;49.70;;;;;;;;;;5054306;28;20823;-79
2023/03/19 08:56:53;;;;;;;52.63;36.57;;;;;;;;;;5054211;28;20517;-80
2023/03/19 22:22:58;;;;;;;132.90;57.27;;;;;;;;;;5090640;27;21143;-81
2023/03/19 22:25:30;;;;;;;151.03;66.40;;;8.10;99.90;;;;;;5091111;28;20449;-78
2023/03/19 22:27:57;;;;;;;23.53;12.97;;;;;;;;;;5090756;28;20456;-84
2023/03/19 22:30:34;;;;;;;144.00;63.03;;;8.20;99.90;;;;;;5092511;28;20955;-78
2023/03/19 22:33:01;;;;;;;19.27;17.40;;;;;;;;;;5090808;28;20441;-78
2023/03/19 22:35:28;;;;;;;35.93;32.23;;;;;;;;;;5089490;28;20444;-77
2023/03/19 22:37:57;;;;;;;43.70;36.43;;;;;;;;;;5091579;28;20544;-81
2023/03/19 22:40:26;;;;;;;37.00;25.13;;;8.40;99.90;;;;;;5090143;28;20447;-79
2023/03/19 22:42:53;;;;;;;33.73;23.73;;;;;;;;;;5089758;28;20488;-85
2023/03/19 22:45:24;;;;;;;51.83;39.60;;;8.40;99.90;;;;;;5086856;28;20452;-79
2023/03/19 22:47:51;;;;;;;46.40;37.80;;;8.40;99.90;;;;;;5089533;28;20453;-79
2023/03/19 22:50:22;;;;;;;111.87;59.00;;;8.30;99.90;;;;;;5087848;28;20452;-78
2023/03/19 22:52:49;;;;;;;47.40;37.70;;;;;;;;;;5089532;28;20494;-84
2023/03/19 22:55:17;;;;;;;36.83;32.93;;;;;;;;;;5084863;28;20477;-80
2023/03/19 22:57:44;;;;;;;11.90;10.90;;;;;;;;;;5069233;28;20450;-81
2023/03/19 23:00:15;;;;;;;6.57;5.97;;;8.30;99.90;;;;;;5069156;28;20449;-78
2023/03/19 23:02:43;;;;;;;9.13;8.30;;;;;;;;;;5068886;28;20501;-84
2023/03/19 23:05:28;;;;;;;7.13;6.30;;;;;;;;;;5067755;28;20450;-84
2023/03/19 23:07:55;;;;;;;9.50;8.70;;;;;;;;;;5068985;28;20449;-80
2023/03/19 23:10:26;;;;;;;15.50;14.30;;;8.30;99.90;;;;;;5068863;28;20452;-79
2023/03/19 23:12:54;;;;;;;41.57;37.07;;;;;;;;;;5068894;28;20446;-78
2023/03/19 23:15:24;;;;;;;101.00;59.50;;;8.40;99.90;;;;;;5068720;28;20445;-82
2023/03/19 23:17:51;;;;;;;23.33;21.60;;;;;;;;;;5068754;28;20528;-82
2023/03/19 23:20:25;;;;;;;25.03;23.00;;;;;;;;;;5067337;28;21020;-83
2023/03/19 23:22:53;;;;;;;9.00;8.40;;;;;;;;;;5068370;28;20588;-81
2023/03/19 23:25:23;;;;;;;3.20;2.87;;;8.40;99.90;;;;;;5068719;28;20446;-87
2023/03/19 23:27:52;;;;;;;9.37;8.43;;;;;;;;;;5050162;28;20470;-78
2023/03/19 23:30:23;;;;;;;4.10;3.70;;;8.30;99.90;;;;;;5009201;28;20448;-85
2023/03/19 23:32:51;;;;;;;2.80;2.50;;;;;;;;;;5003821;28;20484;-80
2023/03/19 23:35:21;;;;;;;2.67;2.47;;;8.30;99.90;;;;;;4995418;28;20508;-81
2023/03/19 23:37:48;;;;;;;3.67;3.03;;;;;;;;;;4996561;28;20967;-77
2023/03/19 23:40:16;;;;;;;3.83;3.17;;;;;;;;;;4996099;28;20453;-78
2023/03/19 23:42:47;;;;;;;3.80;2.70;;;8.30;99.90;;;;;;4996231;28;21066;-77
2023/03/19 23:45:33;;;;;;;4.50;3.50;;;8.40;99.90;;;;;;4995971;28;20580;-82
2023/03/19 23:48:03;;;;;;;3.53;3.20;;;8.30;99.90;;;;;;4996199;28;20539;-77
2023/03/19 23:50:30;;;;;;;2.97;2.53;;;;;;;;;;4994781;28;20450;-78
2023/03/19 23:53:00;;;;;;;3.57;3.27;;;8.30;99.90;;;;;;4995934;28;20457;-77
2023/03/19 23:55:27;;;;;;;4.67;2.80;;;;;;;;;;4996050;28;20880;-78
2023/03/19 23:57:54;;;;;;;2.53;2.33;;;;;;;;;;4996193;28;20460;-77
